Time;durP1;ratioP1;P1;durP2;ratioP2;P2;SDS_P1;SDS_P2;PMS_P1;PMS_P2;Temp;Humidity;BMP_temperature;BMP_pressure;BME280_temperature;BME280_humidity;BME280_pressure;Samples;Min_cycle;Max_cycle;Signal;HPM_P1;HPM_P2
2023/01/25 00:06:16;;;;;;;1999.90;999.90;;;2.10;99.90;;;;;;6625392;89;20998;-80
2023/01/25 00:16:17;;;;;;;1999.90;999.90;;;2.10;99.90;;;;;;6627085;89;20217;-80
2023/01/25 00:26:17;;;;;;;1999.90;999.90;;;2.00;99.90;;;;;;6622971;89;20378;-80
2023/01/25 00:36:37;;;;;;;1999.90;999.90;;;1.80;99.90;;;;;;6629838;89;20228;-79
2023/01/25 00:46:38;;;;;;;1999.90;999.90;;;2.00;99.90;;;;;;6629012;89;20262;-80
2023/01/25 00:56:39;;;;;;;1999.90;999.90;;;1.90;99.90;;;;;;6643450;89;20292;-79
2023/01/25 01:06:40;;;;;;;1999.90;999.90;;;1.80;99.90;;;;;;6632085;89;20197;-80
2023/01/25 01:16:41;;;;;;;1999.90;999.90;;;1.80;99.90;;;;;;6630692;89;20626;-80
2023/01/25 01:26:41;;;;;;;1999.90;999.90;;;1.60;99.90;;;;;;6626067;89;20190;-77
2023/01/25 01:36:42;;;;;;;1999.90;999.90;;;1.80;99.90;;;;;;6625057;89;20224;-78
2023/01/25 01:46:50;;;;;;;1999.90;999.90;;;1.80;99.90;;;;;;6626060;89;20237;-77
2023/01/25 01:57:11;;;;;;;1999.90;999.90;;;1.90;99.90;;;;;;6629233;88;20613;-78
2023/01/25 02:07:32;;;;;;;1999.90;999.90;;;1.90;99.90;;;;;;6626410;89;20367;-79
2023/01/25 02:17:35;;;;;;;1999.90;999.90;;;1.80;99.90;;;;;;6624743;89;20258;-78
2023/01/25 02:27:41;;;;;;;1999.90;999.90;;;1.70;99.90;;;;;;6627351;88;20177;-79
2023/01/25 02:37:41;;;;;;;1999.90;999.90;;;1.60;99.90;;;;;;6629032;89;20377;-79
2023/01/25 02:47:42;;;;;;;1999.90;999.90;;;1.80;99.90;;;;;;6630537;89;20230;-78
2023/01/25 02:57:42;;;;;;;1999.90;999.90;;;1.60;99.90;;;;;;6633241;89;20228;-79
2023/01/25 03:07:43;;;;;;;1999.90;999.90;;;1.70;99.90;;;;;;6646368;89;20481;-79
2023/01/25 03:17:43;;;;;;;1999.90;999.90;;;1.70;99.90;;;;;;6642435;89;20198;-79
2023/01/25 03:27:44;;;;;;;1999.90;999.90;;;1.70;99.90;;;;;;6629346;89;20182;-78
2023/01/25 03:37:44;;;;;;;1999.90;999.90;;;1.70;99.90;;;;;;6626729;89;20217;-79
2023/01/25 03:47:45;;;;;;;1999.90;999.90;;;1.70;99.90;;;;;;6629797;89;20233;-78
2023/01/25 03:57:47;;;;;;;1999.90;999.90;;;1.80;99.90;;;;;;6627417;89;20901;-78
2023/01/25 04:07:48;;;;;;;1999.90;999.90;;;1.50;99.90;;;;;;6627951;89;20226;-78
2023/01/25 04:17:48;;;;;;;1999.90;999.90;;;1.60;99.90;;;;;;6628445;89;20231;-79
2023/01/25 04:27:50;;;;;;;1999.90;999.90;;;1.50;99.90;;;;;;6627477;89;20197;-79
2023/01/25 04:37:55;;;;;;;1999.90;999.90;;;1.70;99.90;;;;;;6627731;89;20214;-78
2023/01/25 04:47:58;;;;;;;1999.90;999.90;;;1.70;99.90;;;;;;6622296;78;20292;-75
2023/01/25 04:57:59;;;;;;;1999.90;999.90;;;1.50;99.90;;;;;;6666183;88;20224;-74
2023/01/25 05:08:00;;;;;;;1999.90;999.90;;;1.40;99.90;;;;;;6693199;88;20314;-75
2023/01/25 05:18:01;;;;;;;1999.90;999.90;;;1.60;99.90;;;;;;6698237;88;20250;-74
2023/01/25 05:28:06;;;;;;;1999.90;999.90;;;1.40;99.90;;;;;;6696991;88;20223;-75
2023/01/25 05:38:06;;;;;;;1999.90;999.90;;;1.50;99.90;;;;;;6698759;88;20306;-74
2023/01/25 05:48:07;;;;;;;1999.90;999.90;;;1.40;99.90;;;;;;6699571;88;20253;-74
2023/01/25 05:58:07;;;;;;;1999.90;999.90;;;1.30;99.90;;;;;;6702171;88;20733;-74
2023/01/25 06:08:08;;;;;;;1999.90;999.90;;;1.10;99.90;;;;;;6697705;88;20207;-73
2023/01/25 06:18:08;;;;;;;1999.90;999.90;;;1.20;99.90;;;;;;6697727;88;20195;-73
2023/01/25 06:28:09;;;;;;;1999.90;999.90;;;1.20;99.90;;;;;;6701659;88;20191;-76
2023/01/25 06:38:09;;;;;;;1999.90;999.90;;;1.20;99.90;;;;;;6711275;88;20189;-76
2023/01/25 06:48:10;;;;;;;1999.90;999.90;;;1.20;99.90;;;;;;6706852;88;20225;-76
2023/01/25 06:58:10;;;;;;;1999.90;999.90;;;1.20;99.90;;;;;;6703593;88;20766;-76
2023/01/25 07:08:11;;;;;;;1999.90;999.90;;;1.30;99.90;;;;;;6699093;88;20322;-76
2023/01/25 07:18:11;;;;;;;1999.90;999.90;;;1.20;99.90;;;;;;6704335;88;20214;-76
2023/01/25 07:28:13;;;;;;;1999.90;999.90;;;1.20;99.90;;;;;;6704528;88;20628;-77
2023/01/25 07:38:13;;;;;;;1999.90;999.90;;;1.30;99.90;;;;;;6697524;88;20725;-77
2023/01/25 07:48:15;;;;;;;1999.90;999.90;;;1.30;99.90;;;;;;6719043;88;20282;-75
2023/01/25 07:58:16;;;;;;;1999.90;999.90;;;1.30;99.90;;;;;;6717885;88;20200;-77
2023/01/25 08:08:16;;;;;;;1999.90;999.90;;;1.40;99.90;;;;;;6702217;88;20275;-77
2023/01/25 08:18:17;;;;;;;1999.90;999.90;;;1.40;99.90;;;;;;6696930;88;20195;-77
2023/01/25 08:28:17;;;;;;;1999.90;999.90;;;1.30;99.90;;;;;;6698454;88;20196;-77
2023/01/25 08:38:18;;;;;;;1999.90;999.90;;;1.40;99.90;;;;;;6694861;88;20217;-77
2023/01/25 08:48:18;;;;;;;1999.90;999.90;;;1.40;99.90;;;;;;6690544;88;20306;-76
2023/01/25 08:58:21;;;;;;;1999.90;999.90;;;1.40;99.90;;;;;;6686533;89;20190;-75
2023/01/25 09:08:21;;;;;;;1999.90;999.90;;;1.40;99.90;;;;;;6687204;88;20279;-77
2023/01/25 09:18:22;;;;;;;1999.90;999.90;;;1.50;99.90;;;;;;6695657;88;20303;-77
2023/01/25 09:28:22;;;;;;;1999.90;999.90;;;1.60;99.90;;;;;;6701763;88;20245;-76
2023/01/25 09:38:24;;;;;;;1999.90;999.90;;;1.60;99.90;;;;;;6696961;88;20688;-76
2023/01/25 09:48:43;;;;;;;1999.90;999.90;;;1.60;99.90;;;;;;6717261;88;20186;-77
2023/01/25 09:58:47;;;;;;;1999.90;999.90;;;1.40;99.90;;;;;;6714643;88;20187;-76
2023/01/25 10:09:20;;;;;;;1999.90;999.90;;;1.50;99.90;;;;;;6706835;88;20657;-77
2023/01/25 10:19:50;;;;;;;1999.90;999.90;;;1.50;99.90;;;;;;6704214;88;20315;-76
2023/01/25 10:29:55;;;;;;;1999.90;999.90;;;1.70;99.90;;;;;;6696680;88;20721;-76
2023/01/25 10:40:11;;;;;;;1999.90;999.90;;;1.80;99.90;;;;;;6706866;88;20221;-76
2023/01/25 10:50:38;;;;;;;1999.90;999.90;;;1.70;99.90;;;;;;6688235;88;20653;-76
2023/01/25 11:00:40;;;;;;;1999.90;999.90;;;1.80;99.90;;;;;;6692032;88;20331;-76
2023/01/25 11:10:44;;;;;;;1999.90;999.90;;;1.70;99.90;;;;;;6694419;88;20748;-75
2023/01/25 11:20:44;;;;;;;1999.90;999.90;;;1.60;99.90;;;;;;6687138;88;20237;-76
2023/01/25 11:30:46;;;;;;;1999.90;999.90;;;1.70;99.90;;;;;;6697962;88;20296;-75
2023/01/25 11:41:08;;;;;;;1999.90;999.90;;;1.60;99.90;;;;;;6689214;88;20203;-75
2023/01/25 11:51:26;;;;;;;1999.90;999.90;;;1.70;99.90;;;;;;6688773;88;20195;-76
2023/01/25 12:01:45;;;;;;;1999.90;999.90;;;1.70;99.90;;;;;;6695481;88;20374;-75
2023/01/25 12:12:07;;;;;;;1999.90;999.90;;;1.60;99.90;;;;;;6691331;88;20209;-75
2023/01/25 12:22:44;;;;;;;1999.90;999.90;;;1.80;99.90;;;;;;6692960;88;20209;-75
2023/01/25 12:32:55;;;;;;;1999.90;999.90;;;1.90;99.90;;;;;;6689694;88;20206;-75
2023/01/25 12:42:58;;;;;;;1999.90;999.90;;;1.90;99.90;;;;;;6695151;88;20666;-76
2023/01/25 12:53:12;;;;;;;1999.90;999.90;;;1.90;99.90;;;;;;6693900;88;20198;-75
2023/01/25 13:03:40;;;;;;;1999.90;999.90;;;2.10;99.90;;;;;;6684917;88;20231;-74
2023/01/25 13:13:40;;;;;;;1999.90;999.90;;;1.90;99.90;;;;;;6692831;88;20210;-75
2023/01/25 13:23:44;;;;;;;1999.90;999.90;;;1.90;99.90;;;;;;6691309;88;20715;-75
2023/01/25 13:33:45;;;;;;;1999.90;999.90;;;1.70;99.90;;;;;;6687714;88;21004;-75
2023/01/25 13:43:49;;;;;;;1999.90;999.90;;;1.80;99.90;;;;;;6688548;88;20216;-75
2023/01/25 13:53:58;;;;;;;1999.90;999.90;;;1.70;99.90;;;;;;6690267;88;20585;-75
2023/01/25 14:04:03;;;;;;;1999.90;999.90;;;1.70;99.90;;;;;;6690924;88;20218;-75
2023/01/25 14:14:23;;;;;;;1999.90;999.90;;;1.70;99.90;;;;;;6692573;88;20267;-75
2023/01/25 14:24:24;;;;;;;1999.90;999.90;;;1.80;99.90;;;;;;6694782;88;20268;-75
2023/01/25 14:34:25;;;;;;;1999.90;999.90;;;1.80;99.90;;;;;;6693122;88;20648;-75
2023/01/25 14:44:27;;;;;;;1999.90;999.90;;;1.80;99.90;;;;;;6690317;88;20736;-75
2023/01/25 14:54:30;;;;;;;1999.90;999.90;;;1.80;99.90;;;;;;6692985;88;20191;-75
2023/01/25 15:04:31;;;;;;;1999.90;999.90;;;1.40;99.90;;;;;;6690691;88;20249;-75
2023/01/25 15:14:31;;;;;;;1999.90;999.90;;;1.40;99.90;;;;;;6692226;88;20386;-75
2023/01/25 15:24:32;;;;;;;1999.90;999.90;;;1.30;99.90;;;;;;6690711;88;20225;-75
2023/01/25 15:34:33;;;;;;;1999.90;999.90;;;1.40;99.90;;;;;;6696231;88;20201;-76
2023/01/25 15:44:33;;;;;;;1999.90;999.90;;;1.30;99.90;;;;;;6691649;88;20592;-75
2023/01/25 15:54:34;;;;;;;1999.90;999.90;;;1.30;99.90;;;;;;6691934;88;20203;-76
2023/01/25 16:04:36;;;;;;;1999.90;999.90;;;1.30;99.90;;;;;;6692276;88;20315;-76
2023/01/25 16:14:37;;;;;;;1999.90;999.90;;;1.20;99.90;;;;;;6689060;88;20196;-75
2023/01/25 16:24:38;;;;;;;1999.90;999.90;;;1.30;99.90;;;;;;6690345;88;20221;-75
2023/01/25 16:34:38;;;;;;;1999.90;999.90;;;1.20;99.90;;;;;;6692371;88;20802;-74
2023/01/25 16:44:39;;;;;;;1999.90;999.90;;;1.20;99.90;;;;;;6690976;88;20232;-75
2023/01/25 16:54:39;;;;;;;1999.90;999.90;;;1.20;99.90;;;;;;6692704;88;20206;-75
2023/01/25 17:04:40;;;;;;;1999.90;999.90;;;1.00;99.90;;;;;;6695598;88;20174;-75
2023/01/25 17:14:40;;;;;;;1999.90;999.90;;;0.90;99.90;;;;;;6693973;88;20303;-74
2023/01/25 17:24:41;;;;;;;1999.90;999.90;;;0.80;99.90;;;;;;6691774;88;20806;-74
2023/01/25 17:34:41;;;;;;;1999.90;999.90;;;0.60;99.90;;;;;;6696349;88;20202;-75
2023/01/25 17:44:42;;;;;;;1999.90;999.90;;;0.60;99.90;;;;;;6706337;88;20285;-74
2023/01/25 17:54:42;;;;;;;1999.90;999.90;;;0.70;99.90;;;;;;6712696;88;20222;-75
2023/01/25 18:04:43;;;;;;;1999.90;999.90;;;0.60;99.90;;;;;;6701406;88;20360;-74
2023/01/25 18:14:44;;;;;;;1999.90;999.90;;;0.70;99.90;;;;;;6701814;88;20749;-77
2023/01/25 18:24:45;;;;;;;1999.90;999.90;;;0.50;99.90;;;;;;6699255;88;20296;-76
2023/01/25 18:34:46;;;;;;;1999.90;999.90;;;0.60;99.90;;;;;;6712092;88;20354;-78
2023/01/25 18:44:47;;;;;;;1999.90;999.90;;;0.60;99.90;;;;;;6715738;88;20350;-75
2023/01/25 18:54:48;;;;;;;1999.90;999.90;;;0.60;99.90;;;;;;6704920;88;20273;-75
2023/01/25 19:04:49;;;;;;;1999.90;999.90;;;0.70;99.90;;;;;;6701340;88;20224;-76
2023/01/25 19:14:50;;;;;;;1999.90;999.90;;;0.60;99.90;;;;;;6698437;88;20502;-76
2023/01/25 19:24:50;;;;;;;1999.90;999.90;;;0.50;99.90;;;;;;6699087;88;20282;-75
2023/01/25 19:34:51;;;;;;;1999.90;999.90;;;0.40;99.90;;;;;;6698774;88;20237;-75
2023/01/25 19:44:51;;;;;;;1999.90;999.90;;;0.50;99.90;;;;;;6698297;88;20235;-74
2023/01/25 19:54:52;;;;;;;1999.90;999.90;;;0.30;99.90;;;;;;6695111;88;20203;-75
2023/01/25 20:04:53;;;;;;;1999.90;999.90;;;0.40;99.90;;;;;;6696731;88;20245;-75
2023/01/25 20:14:54;;;;;;;1999.90;999.90;;;0.30;99.90;;;;;;6695515;88;20288;-75
2023/01/25 20:24:54;;;;;;;1999.90;999.90;;;0.30;99.90;;;;;;6696494;88;20216;-74
2023/01/25 20:34:55;;;;;;;1999.90;999.90;;;0.00;99.90;;;;;;6694715;88;20214;-74
2023/01/25 20:44:55;;;;;;;1999.90;999.90;;;0.00;99.90;;;;;;6695496;88;20228;-74
2023/01/25 20:54:56;;;;;;;1999.90;999.90;;;-0.10;99.90;;;;;;6697623;88;20306;-74
2023/01/25 21:04:56;;;;;;;1999.90;999.90;;;0.10;99.90;;;;;;6698957;88;20205;-75
2023/01/25 21:14:57;;;;;;;1999.90;999.90;;;0.00;99.90;;;;;;6703038;88;20333;-74
2023/01/25 21:24:57;;;;;;;1999.90;999.90;;;-0.20;99.90;;;;;;6698074;88;20318;-75
2023/01/25 21:34:58;;;;;;;1999.90;999.90;;;-0.20;99.90;;;;;;6699864;88;20518;-74
2023/01/25 21:55:17;;;;;;;1999.90;999.90;;;-0.40;99.90;;;;;;6701075;88;20588;-75
2023/01/25 22:05:18;;;;;;;1999.90;999.90;;;-0.40;99.90;;;;;;6692396;88;20816;-75
2023/01/25 22:15:19;;;;;;;1999.90;999.90;;;-0.50;99.90;;;;;;6693864;88;20601;-75
2023/01/25 22:25:19;;;;;;;1999.90;999.90;;;-0.50;99.90;;;;;;6697432;88;20191;-76
2023/01/25 22:35:20;;;;;;;1999.90;999.90;;;-0.60;99.90;;;;;;6697130;88;20489;-75
2023/01/25 22:55:23;;;;;;;1999.90;999.90;;;-0.50;99.90;;;;;;6781512;87;20203;-78
2023/01/25 23:05:26;;;;;;;1999.90;999.90;;;-0.40;99.90;;;;;;6767675;88;20220;-78
2023/01/25 23:15:26;;;;;;;1999.90;999.90;;;-0.50;99.90;;;;;;6767832;88;20258;-78
2023/01/25 23:25:28;;;;;;;1999.90;999.90;;;-0.40;99.90;;;;;;6762932;88;20199;-79
2023/01/25 23:35:29;;;;;;;1999.90;999.90;;;-0.20;99.90;;;;;;6766061;88;20211;-78
2023/01/25 23:45:29;;;;;;;1999.90;999.90;;;-0.30;99.90;;;;;;6765122;87;20191;-78
2023/01/25 23:55:30;;;;;;;1999.90;999.90;;;-0.30;99.90;;;;;;6765131;88;20613;-78
